sensor_id;sensor_type;location;lat;lon;timestamp;P1;durP1;ratioP1;P2;durP2;ratioP2
58308;SDS011;44117;57.142;24.826;2022-07-29T00:01:39;3.08;;;1.40;;
58308;SDS011;44117;57.142;24.826;2022-07-29T00:04:07;6.10;;;1.50;;
58308;SDS011;44117;57.142;24.826;2022-07-29T00:06:34;4.65;;;1.73;;
58308;SDS011;44117;57.142;24.826;2022-07-29T00:09:03;3.95;;;1.45;;
58308;SDS011;44117;57.142;24.826;2022-07-29T00:11:30;5.55;;;1.50;;
58308;SDS011;44117;57.142;24.826;2022-07-29T00:13:57;4.13;;;1.63;;
58308;SDS011;44117;57.142;24.826;2022-07-29T00:16:25;3.03;;;1.55;;
58308;SDS011;44117;57.142;24.826;2022-07-29T00:18:52;3.10;;;1.55;;
58308;SDS011;44117;57.142;24.826;2022-07-29T00:21:20;5.15;;;1.80;;
58308;SDS011;44117;57.142;24.826;2022-07-29T00:23:47;3.08;;;1.55;;
58308;SDS011;44117;57.142;24.826;2022-07-29T00:26:14;6.70;;;1.58;;
58308;SDS011;44117;57.142;24.826;2022-07-29T00:28:42;3.67;;;1.55;;
58308;SDS011;44117;57.142;24.826;2022-07-29T00:31:09;4.53;;;1.88;;
58308;SDS011;44117;57.142;24.826;2022-07-29T00:33:37;2.95;;;1.50;;
58308;SDS011;44117;57.142;24.826;2022-07-29T00:36:04;3.17;;;1.58;;
58308;SDS011;44117;57.142;24.826;2022-07-29T00:38:32;5.15;;;1.80;;
58308;SDS011;44117;57.142;24.826;2022-07-29T00:41:00;3.10;;;1.58;;
58308;SDS011;44117;57.142;24.826;2022-07-29T00:43:27;4.85;;;1.83;;
58308;SDS011;44117;57.142;24.826;2022-07-29T00:45:55;2.30;;;1.50;;
58308;SDS011;44117;57.142;24.826;2022-07-29T00:48:22;2.65;;;1.60;;
58308;SDS011;44117;57.142;24.826;2022-07-29T00:50:49;4.47;;;1.50;;
58308;SDS011;44117;57.142;24.826;2022-07-29T00:53:17;2.88;;;1.38;;
58308;SDS011;44117;57.142;24.826;2022-07-29T00:55:47;5.32;;;1.80;;
58308;SDS011;44117;57.142;24.826;2022-07-29T00:58:14;2.53;;;1.50;;
58308;SDS011;44117;57.142;24.826;2022-07-29T01:00:42;3.70;;;1.60;;
58308;SDS011;44117;57.142;24.826;2022-07-29T01:03:10;3.45;;;1.80;;
58308;SDS011;44117;57.142;24.826;2022-07-29T01:05:38;3.60;;;2.00;;
58308;SDS011;44117;57.142;24.826;2022-07-29T01:08:17;2.25;;;1.60;;
58308;SDS011;44117;57.142;24.826;2022-07-29T01:10:46;2.63;;;1.40;;
58308;SDS011;44117;57.142;24.826;2022-07-29T01:13:15;3.92;;;1.45;;
58308;SDS011;44117;57.142;24.826;2022-07-29T01:15:44;3.33;;;1.48;;
58308;SDS011;44117;57.142;24.826;2022-07-29T01:18:30;4.30;;;1.35;;
58308;SDS011;44117;57.142;24.826;2022-07-29T01:21:08;3.55;;;1.60;;
58308;SDS011;44117;57.142;24.826;2022-07-29T01:29:56;3.13;;;1.50;;
58308;SDS011;44117;57.142;24.826;2022-07-29T01:32:26;4.40;;;1.50;;
58308;SDS011;44117;57.142;24.826;2022-07-29T01:34:59;2.67;;;1.40;;
58308;SDS011;44117;57.142;24.826;2022-07-29T01:38:09;3.85;;;1.55;;
58308;SDS011;44117;57.142;24.826;2022-07-29T01:43:44;3.47;;;1.30;;
58308;SDS011;44117;57.142;24.826;2022-07-29T01:46:35;3.13;;;1.40;;
58308;SDS011;44117;57.142;24.826;2022-07-29T01:49:13;2.33;;;1.38;;
58308;SDS011;44117;57.142;24.826;2022-07-29T01:52:31;2.67;;;1.25;;
58308;SDS011;44117;57.142;24.826;2022-07-29T01:54:38;3.45;;;1.40;;
58308;SDS011;44117;57.142;24.826;2022-07-29T01:57:13;4.38;;;1.38;;
58308;SDS011;44117;57.142;24.826;2022-07-29T01:59:43;3.25;;;1.50;;
58308;SDS011;44117;57.142;24.826;2022-07-29T02:02:14;2.10;;;1.20;;
58308;SDS011;44117;57.142;24.826;2022-07-29T02:04:43;3.38;;;1.42;;
58308;SDS011;44117;57.142;24.826;2022-07-29T02:07:16;2.97;;;1.42;;
58308;SDS011;44117;57.142;24.826;2022-07-29T02:09:47;3.03;;;1.48;;
58308;SDS011;44117;57.142;24.826;2022-07-29T02:12:17;3.35;;;1.40;;
58308;SDS011;44117;57.142;24.826;2022-07-29T02:14:47;4.22;;;1.73;;
58308;SDS011;44117;57.142;24.826;2022-07-29T02:17:19;4.82;;;1.40;;
58308;SDS011;44117;57.142;24.826;2022-07-29T02:19:56;2.83;;;1.70;;
58308;SDS011;44117;57.142;24.826;2022-07-29T02:22:26;4.03;;;1.70;;
58308;SDS011;44117;57.142;24.826;2022-07-29T02:24:57;2.92;;;1.42;;
58308;SDS011;44117;57.142;24.826;2022-07-29T02:27:26;2.92;;;1.55;;
58308;SDS011;44117;57.142;24.826;2022-07-29T02:29:55;4.50;;;1.73;;
58308;SDS011;44117;57.142;24.826;2022-07-29T02:32:25;3.15;;;1.23;;
58308;SDS011;44117;57.142;24.826;2022-07-29T02:34:56;3.88;;;1.35;;
58308;SDS011;44117;57.142;24.826;2022-07-29T02:37:25;3.38;;;1.48;;
58308;SDS011;44117;57.142;24.826;2022-07-29T02:39:56;2.75;;;1.40;;
58308;SDS011;44117;57.142;24.826;2022-07-29T02:42:26;2.75;;;1.40;;
58308;SDS011;44117;57.142;24.826;2022-07-29T02:44:55;3.65;;;1.40;;
58308;SDS011;44117;57.142;24.826;2022-07-29T02:50:32;3.05;;;1.35;;
58308;SDS011;44117;57.142;24.826;2022-07-29T02:53:13;3.42;;;1.48;;
58308;SDS011;44117;57.142;24.826;2022-07-29T02:55:48;2.78;;;1.30;;
58308;SDS011;44117;57.142;24.826;2022-07-29T03:01:11;2.28;;;1.15;;
58308;SDS011;44117;57.142;24.826;2022-07-29T03:03:48;3.03;;;1.30;;
58308;SDS011;44117;57.142;24.826;2022-07-29T03:06:17;2.55;;;1.30;;
58308;SDS011;44117;57.142;24.826;2022-07-29T03:09:04;1.92;;;1.20;;
58308;SDS011;44117;57.142;24.826;2022-07-29T03:11:39;2.72;;;1.35;;
58308;SDS011;44117;57.142;24.826;2022-07-29T03:14:18;3.50;;;1.25;;
58308;SDS011;44117;57.142;24.826;2022-07-29T03:16:47;2.28;;;1.40;;
58308;SDS011;44117;57.142;24.826;2022-07-29T03:19:16;5.80;;;1.40;;
58308;SDS011;44117;57.142;24.826;2022-07-29T03:21:44;1.80;;;1.00;;
58308;SDS011;44117;57.142;24.826;2022-07-29T03:24:23;4.63;;;1.20;;
58308;SDS011;44117;57.142;24.826;2022-07-29T03:26:52;2.28;;;1.10;;
58308;SDS011;44117;57.142;24.826;2022-07-29T03:29:20;2.65;;;1.30;;
58308;SDS011;44117;57.142;24.826;2022-07-29T03:31:49;1.85;;;1.15;;
58308;SDS011;44117;57.142;24.826;2022-07-29T03:34:17;2.83;;;1.30;;
58308;SDS011;44117;57.142;24.826;2022-07-29T03:36:48;2.58;;;1.20;;
58308;SDS011;44117;57.142;24.826;2022-07-29T03:39:20;3.05;;;1.30;;
58308;SDS011;44117;57.142;24.826;2022-07-29T03:41:51;3.00;;;1.77;;
58308;SDS011;44117;57.142;24.826;2022-07-29T03:44:21;1.85;;;1.10;;
58308;SDS011;44117;57.142;24.826;2022-07-29T03:46:50;4.97;;;1.10;;
58308;SDS011;44117;57.142;24.826;2022-07-29T03:49:21;2.22;;;1.23;;
58308;SDS011;44117;57.142;24.826;2022-07-29T03:51:50;3.08;;;1.23;;
58308;SDS011;44117;57.142;24.826;2022-07-29T03:54:17;2.88;;;1.00;;
58308;SDS011;44117;57.142;24.826;2022-07-29T03:56:47;2.60;;;1.10;;
58308;SDS011;44117;57.142;24.826;2022-07-29T03:59:16;2.03;;;1.10;;
58308;SDS011;44117;57.142;24.826;2022-07-29T04:01:46;2.15;;;0.90;;
58308;SDS011;44117;57.142;24.826;2022-07-29T04:04:15;1.58;;;1.10;;
58308;SDS011;44117;57.142;24.826;2022-07-29T04:06:44;0.90;;;0.90;;
58308;SDS011;44117;57.142;24.826;2022-07-29T04:09:13;2.90;;;1.10;;
58308;SDS011;44117;57.142;24.826;2022-07-29T04:11:41;3.83;;;1.00;;
58308;SDS011;44117;57.142;24.826;2022-07-29T04:14:28;2.45;;;1.02;;
58308;SDS011;44117;57.142;24.826;2022-07-29T04:16:57;3.28;;;1.00;;
58308;SDS011;44117;57.142;24.826;2022-07-29T04:19:26;1.58;;;0.93;;
58308;SDS011;44117;57.142;24.826;2022-07-29T04:21:53;3.25;;;1.10;;
58308;SDS011;44117;57.142;24.826;2022-07-29T04:24:20;3.30;;;1.15;;
58308;SDS011;44117;57.142;24.826;2022-07-29T04:26:48;2.40;;;1.20;;
58308;SDS011;44117;57.142;24.826;2022-07-29T04:29:15;4.53;;;1.38;;
58308;SDS011;44117;57.142;24.826;2022-07-29T04:31:43;3.70;;;1.25;;
58308;SDS011;44117;57.142;24.826;2022-07-29T04:34:10;2.80;;;1.00;;
58308;SDS011;44117;57.142;24.826;2022-07-29T04:36:39;2.17;;;1.00;;
58308;SDS011;44117;57.142;24.826;2022-07-29T04:39:06;2.92;;;1.10;;
58308;SDS011;44117;57.142;24.826;2022-07-29T04:41:33;3.80;;;1.30;;
58308;SDS011;44117;57.142;24.826;2022-07-29T04:44:01;3.00;;;1.17;;
58308;SDS011;44117;57.142;24.826;2022-07-29T04:46:32;1.60;;;1.02;;
58308;SDS011;44117;57.142;24.826;2022-07-29T04:49:01;3.35;;;1.00;;
58308;SDS011;44117;57.142;24.826;2022-07-29T04:51:29;3.10;;;0.90;;
58308;SDS011;44117;57.142;24.826;2022-07-29T04:53:57;2.80;;;1.10;;
58308;SDS011;44117;57.142;24.826;2022-07-29T04:56:25;4.28;;;1.27;;
58308;SDS011;44117;57.142;24.826;2022-07-29T04:58:52;2.83;;;0.88;;
58308;SDS011;44117;57.142;24.826;2022-07-29T05:01:20;7.13;;;1.58;;
58308;SDS011;44117;57.142;24.826;2022-07-29T05:03:47;1.10;;;0.90;;
58308;SDS011;44117;57.142;24.826;2022-07-29T05:06:15;1.33;;;0.85;;
58308;SDS011;44117;57.142;24.826;2022-07-29T05:08:42;2.03;;;1.00;;
58308;SDS011;44117;57.142;24.826;2022-07-29T05:11:09;2.65;;;1.00;;
58308;SDS011;44117;57.142;24.826;2022-07-29T05:13:41;3.28;;;0.90;;
58308;SDS011;44117;57.142;24.826;2022-07-29T05:16:11;2.30;;;0.90;;
58308;SDS011;44117;57.142;24.826;2022-07-29T05:18:39;1.90;;;1.10;;
58308;SDS011;44117;57.142;24.826;2022-07-29T05:21:07;3.20;;;0.77;;
58308;SDS011;44117;57.142;24.826;2022-07-29T05:23:34;2.53;;;0.80;;
58308;SDS011;44117;57.142;24.826;2022-07-29T05:26:02;2.40;;;0.90;;
58308;SDS011;44117;57.142;24.826;2022-07-29T05:28:32;1.52;;;0.75;;
58308;SDS011;44117;57.142;24.826;2022-07-29T05:31:01;1.52;;;0.80;;
58308;SDS011;44117;57.142;24.826;2022-07-29T05:33:29;3.70;;;1.05;;
58308;SDS011;44117;57.142;24.826;2022-07-29T05:36:04;1.15;;;0.70;;
58308;SDS011;44117;57.142;24.826;2022-07-29T05:38:34;2.58;;;0.80;;
58308;SDS011;44117;57.142;24.826;2022-07-29T05:41:02;1.60;;;0.70;;
58308;SDS011;44117;57.142;24.826;2022-07-29T05:43:31;2.50;;;0.70;;
58308;SDS011;44117;57.142;24.826;2022-07-29T05:45:59;1.90;;;0.73;;
58308;SDS011;44117;57.142;24.826;2022-07-29T05:48:26;0.88;;;0.70;;
58308;SDS011;44117;57.142;24.826;2022-07-29T05:50:54;1.38;;;0.60;;
58308;SDS011;44117;57.142;24.826;2022-07-29T05:53:21;2.72;;;0.70;;
58308;SDS011;44117;57.142;24.826;2022-07-29T05:55:49;1.58;;;0.60;;
58308;SDS011;44117;57.142;24.826;2022-07-29T05:58:16;3.35;;;0.70;;
58308;SDS011;44117;57.142;24.826;2022-07-29T06:00:44;1.60;;;0.70;;
58308;SDS011;44117;57.142;24.826;2022-07-29T06:03:12;1.75;;;0.60;;
58308;SDS011;44117;57.142;24.826;2022-07-29T06:05:39;1.92;;;0.50;;
58308;SDS011;44117;57.142;24.826;2022-07-29T06:08:06;1.60;;;0.68;;
58308;SDS011;44117;57.142;24.826;2022-07-29T06:10:34;3.47;;;0.70;;
58308;SDS011;44117;57.142;24.826;2022-07-29T06:13:02;2.50;;;0.70;;
58308;SDS011;44117;57.142;24.826;2022-07-29T06:15:29;1.80;;;0.70;;
58308;SDS011;44117;57.142;24.826;2022-07-29T06:17:56;1.33;;;0.60;;
58308;SDS011;44117;57.142;24.826;2022-07-29T06:20:27;1.02;;;0.68;;
58308;SDS011;44117;57.142;24.826;2022-07-29T06:22:57;2.25;;;0.65;;
58308;SDS011;44117;57.142;24.826;2022-07-29T06:25:25;2.00;;;0.60;;
58308;SDS011;44117;57.142;24.826;2022-07-29T06:27:52;1.65;;;0.60;;
58308;SDS011;44117;57.142;24.826;2022-07-29T06:30:20;1.33;;;0.60;;
58308;SDS011;44117;57.142;24.826;2022-07-29T06:32:48;1.33;;;0.80;;
58308;SDS011;44117;57.142;24.826;2022-07-29T06:35:16;2.15;;;1.20;;
58308;SDS011;44117;57.142;24.826;2022-07-29T06:38:03;1.10;;;0.70;;
58308;SDS011;44117;57.142;24.826;2022-07-29T06:40:51;1.30;;;0.73;;
58308;SDS011;44117;57.142;24.826;2022-07-29T06:43:28;0.90;;;0.60;;
58308;SDS011;44117;57.142;24.826;2022-07-29T06:45:58;1.17;;;0.60;;
58308;SDS011;44117;57.142;24.826;2022-07-29T06:48:27;0.80;;;0.60;;
58308;SDS011;44117;57.142;24.826;2022-07-29T06:50:55;0.70;;;0.52;;
58308;SDS011;44117;57.142;24.826;2022-07-29T06:53:23;1.38;;;0.65;;
58308;SDS011;44117;57.142;24.826;2022-07-29T06:55:50;2.40;;;0.75;;
58308;SDS011;44117;57.142;24.826;2022-07-29T06:58:18;3.15;;;0.77;;
58308;SDS011;44117;57.142;24.826;2022-07-29T07:00:47;1.13;;;0.45;;
58308;SDS011;44117;57.142;24.826;2022-07-29T07:03:15;2.05;;;0.63;;
58308;SDS011;44117;57.142;24.826;2022-07-29T07:05:43;2.63;;;0.80;;
58308;SDS011;44117;57.142;24.826;2022-07-29T07:08:12;2.47;;;0.73;;
58308;SDS011;44117;57.142;24.826;2022-07-29T07:10:40;1.35;;;0.68;;
58308;SDS011;44117;57.142;24.826;2022-07-29T07:13:07;4.60;;;0.68;;
58308;SDS011;44117;57.142;24.826;2022-07-29T07:15:35;1.45;;;0.73;;
58308;SDS011;44117;57.142;24.826;2022-07-29T07:18:05;1.60;;;0.60;;
58308;SDS011;44117;57.142;24.826;2022-07-29T07:20:33;2.28;;;0.55;;
58308;SDS011;44117;57.142;24.826;2022-07-29T07:23:02;0.80;;;0.60;;
58308;SDS011;44117;57.142;24.826;2022-07-29T07:25:30;1.15;;;0.60;;
58308;SDS011;44117;57.142;24.826;2022-07-29T07:27:57;2.15;;;0.60;;
58308;SDS011;44117;57.142;24.826;2022-07-29T07:30:24;1.02;;;0.50;;
58308;SDS011;44117;57.142;24.826;2022-07-29T07:32:52;1.50;;;0.50;;
58308;SDS011;44117;57.142;24.826;2022-07-29T07:35:19;1.25;;;0.50;;
58308;SDS011;44117;57.142;24.826;2022-07-29T07:37:47;0.70;;;0.50;;
58308;SDS011;44117;57.142;24.826;2022-07-29T07:40:14;0.88;;;0.57;;
58308;SDS011;44117;57.142;24.826;2022-07-29T07:42:44;0.75;;;0.55;;
58308;SDS011;44117;57.142;24.826;2022-07-29T07:45:11;1.23;;;0.55;;
58308;SDS011;44117;57.142;24.826;2022-07-29T07:47:42;0.50;;;0.50;;
58308;SDS011;44117;57.142;24.826;2022-07-29T07:50:10;2.35;;;0.50;;
58308;SDS011;44117;57.142;24.826;2022-07-29T07:52:47;2.15;;;0.50;;
58308;SDS011;44117;57.142;24.826;2022-07-29T07:55:19;1.67;;;0.70;;
58308;SDS011;44117;57.142;24.826;2022-07-29T07:57:47;3.42;;;0.57;;
58308;SDS011;44117;57.142;24.826;2022-07-29T08:00:15;1.38;;;0.50;;
58308;SDS011;44117;57.142;24.826;2022-07-29T08:02:43;0.98;;;0.45;;
58308;SDS011;44117;57.142;24.826;2022-07-29T08:05:11;1.88;;;0.60;;
58308;SDS011;44117;57.142;24.826;2022-07-29T08:07:46;1.08;;;0.60;;
58308;SDS011;44117;57.142;24.826;2022-07-29T08:10:14;1.58;;;0.50;;
58308;SDS011;44117;57.142;24.826;2022-07-29T08:13:05;2.25;;;0.60;;
58308;SDS011;44117;57.142;24.826;2022-07-29T08:15:34;0.77;;;0.50;;
58308;SDS011;44117;57.142;24.826;2022-07-29T08:18:01;1.25;;;0.65;;
58308;SDS011;44117;57.142;24.826;2022-07-29T08:20:34;0.57;;;0.57;;
58308;SDS011;44117;57.142;24.826;2022-07-29T08:23:02;1.15;;;0.60;;
58308;SDS011;44117;57.142;24.826;2022-07-29T08:25:31;0.70;;;0.60;;
58308;SDS011;44117;57.142;24.826;2022-07-29T08:28:04;1.60;;;0.60;;
58308;SDS011;44117;57.142;24.826;2022-07-29T08:30:31;2.97;;;0.65;;
58308;SDS011;44117;57.142;24.826;2022-07-29T08:32:59;3.85;;;0.85;;
58308;SDS011;44117;57.142;24.826;2022-07-29T08:35:26;1.77;;;0.70;;
58308;SDS011;44117;57.142;24.826;2022-07-29T08:38:00;2.05;;;0.77;;
58308;SDS011;44117;57.142;24.826;2022-07-29T08:40:29;2.75;;;0.60;;
58308;SDS011;44117;57.142;24.826;2022-07-29T08:42:58;1.20;;;0.52;;
58308;SDS011;44117;57.142;24.826;2022-07-29T08:45:36;1.27;;;0.68;;
58308;SDS011;44117;57.142;24.826;2022-07-29T08:48:17;2.40;;;0.60;;
58308;SDS011;44117;57.142;24.826;2022-07-29T08:50:47;1.13;;;0.68;;
58308;SDS011;44117;57.142;24.826;2022-07-29T08:53:16;2.33;;;0.57;;
58308;SDS011;44117;57.142;24.826;2022-07-29T08:55:49;1.27;;;0.57;;
58308;SDS011;44117;57.142;24.826;2022-07-29T08:58:17;2.20;;;0.70;;
58308;SDS011;44117;57.142;24.826;2022-07-29T09:00:55;0.47;;;0.47;;
58308;SDS011;44117;57.142;24.826;2022-07-29T09:03:24;1.95;;;0.60;;
58308;SDS011;44117;57.142;24.826;2022-07-29T09:08:24;1.23;;;0.52;;
58308;SDS011;44117;57.142;24.826;2022-07-29T09:10:52;0.70;;;0.52;;
58308;SDS011;44117;57.142;24.826;2022-07-29T09:13:19;0.55;;;0.50;;
58308;SDS011;44117;57.142;24.826;2022-07-29T09:15:48;0.77;;;0.60;;
58308;SDS011;44117;57.142;24.826;2022-07-29T09:18:34;1.45;;;0.70;;
58308;SDS011;44117;57.142;24.826;2022-07-29T09:21:02;1.33;;;0.85;;
58308;SDS011;44117;57.142;24.826;2022-07-29T09:24:03;0.68;;;0.57;;
58308;SDS011;44117;57.142;24.826;2022-07-29T09:26:36;0.73;;;0.60;;
58308;SDS011;44117;57.142;24.826;2022-07-29T09:29:09;0.77;;;0.55;;
58308;SDS011;44117;57.142;24.826;2022-07-29T09:31:49;1.90;;;0.60;;
58308;SDS011;44117;57.142;24.826;2022-07-29T09:34:22;2.10;;;0.70;;
58308;SDS011;44117;57.142;24.826;2022-07-29T09:36:50;0.68;;;0.40;;
58308;SDS011;44117;57.142;24.826;2022-07-29T09:41:57;1.55;;;0.60;;
58308;SDS011;44117;57.142;24.826;2022-07-29T09:44:26;2.55;;;0.60;;
58308;SDS011;44117;57.142;24.826;2022-07-29T09:47:07;2.53;;;0.60;;
58308;SDS011;44117;57.142;24.826;2022-07-29T09:49:35;0.63;;;0.63;;
58308;SDS011;44117;57.142;24.826;2022-07-29T09:52:18;1.35;;;0.80;;
58308;SDS011;44117;57.142;24.826;2022-07-29T09:54:45;1.80;;;0.57;;
58308;SDS011;44117;57.142;24.826;2022-07-29T10:00:00;0.70;;;0.60;;
58308;SDS011;44117;57.142;24.826;2022-07-29T10:02:31;2.28;;;0.50;;
58308;SDS011;44117;57.142;24.826;2022-07-29T10:05:00;0.85;;;0.60;;
58308;SDS011;44117;57.142;24.826;2022-07-29T10:07:46;2.95;;;0.88;;
58308;SDS011;44117;57.142;24.826;2022-07-29T10:13:01;2.38;;;0.60;;
58308;SDS011;44117;57.142;24.826;2022-07-29T10:15:41;0.68;;;0.47;;
58308;SDS011;44117;57.142;24.826;2022-07-29T10:18:12;1.25;;;0.70;;
58308;SDS011;44117;57.142;24.826;2022-07-29T10:20:41;1.05;;;0.52;;
58308;SDS011;44117;57.142;24.826;2022-07-29T10:23:08;1.90;;;0.77;;
58308;SDS011;44117;57.142;24.826;2022-07-29T10:25:36;1.63;;;0.60;;
58308;SDS011;44117;57.142;24.826;2022-07-29T10:28:05;2.08;;;0.50;;
58308;SDS011;44117;57.142;24.826;2022-07-29T10:30:33;0.98;;;0.47;;
58308;SDS011;44117;57.142;24.826;2022-07-29T10:36:21;0.63;;;0.50;;
58308;SDS011;44117;57.142;24.826;2022-07-29T10:39:00;1.20;;;0.40;;
58308;SDS011;44117;57.142;24.826;2022-07-29T10:44:59;1.45;;;0.52;;
58308;SDS011;44117;57.142;24.826;2022-07-29T10:47:29;2.83;;;0.65;;
58308;SDS011;44117;57.142;24.826;2022-07-29T10:50:03;0.63;;;0.60;;
58308;SDS011;44117;57.142;24.826;2022-07-29T10:55:39;0.60;;;0.40;;
58308;SDS011;44117;57.142;24.826;2022-07-29T10:58:22;1.20;;;0.68;;
58308;SDS011;44117;57.142;24.826;2022-07-29T11:00:51;13.02;;;1.00;;
58308;SDS011;44117;57.142;24.826;2022-07-29T11:06:16;1.90;;;0.65;;
58308;SDS011;44117;57.142;24.826;2022-07-29T11:11:45;1.70;;;0.70;;
58308;SDS011;44117;57.142;24.826;2022-07-29T11:14:17;0.73;;;0.40;;
58308;SDS011;44117;57.142;24.826;2022-07-29T11:16:58;0.95;;;0.50;;
58308;SDS011;44117;57.142;24.826;2022-07-29T11:19:32;1.23;;;0.32;;
58308;SDS011;44117;57.142;24.826;2022-07-29T11:22:01;2.78;;;0.80;;
58308;SDS011;44117;57.142;24.826;2022-07-29T11:24:31;0.88;;;0.50;;
58308;SDS011;44117;57.142;24.826;2022-07-29T11:27:19;1.20;;;0.70;;
58308;SDS011;44117;57.142;24.826;2022-07-29T11:29:58;0.85;;;0.38;;
58308;SDS011;44117;57.142;24.826;2022-07-29T11:32:40;1.20;;;1.10;;
58308;SDS011;44117;57.142;24.826;2022-07-29T11:35:17;1.15;;;0.60;;
58308;SDS011;44117;57.142;24.826;2022-07-29T11:43:53;1.42;;;0.80;;
58308;SDS011;44117;57.142;24.826;2022-07-29T11:49:19;0.93;;;0.40;;
58308;SDS011;44117;57.142;24.826;2022-07-29T11:51:58;2.95;;;1.02;;
58308;SDS011;44117;57.142;24.826;2022-07-29T11:54:31;0.68;;;0.50;;
58308;SDS011;44117;57.142;24.826;2022-07-29T11:57:20;2.08;;;0.90;;
58308;SDS011;44117;57.142;24.826;2022-07-29T12:00:01;1.50;;;0.80;;
58308;SDS011;44117;57.142;24.826;2022-07-29T12:02:43;1.02;;;0.40;;
58308;SDS011;44117;57.142;24.826;2022-07-29T12:05:14;1.25;;;0.70;;
58308;SDS011;44117;57.142;24.826;2022-07-29T12:08:20;1.17;;;0.57;;
58308;SDS011;44117;57.142;24.826;2022-07-29T12:10:49;1.55;;;0.40;;
58308;SDS011;44117;57.142;24.826;2022-07-29T12:13:20;0.95;;;0.60;;
58308;SDS011;44117;57.142;24.826;2022-07-29T12:16:03;2.42;;;0.40;;
58308;SDS011;44117;57.142;24.826;2022-07-29T12:18:31;3.38;;;0.60;;
58308;SDS011;44117;57.142;24.826;2022-07-29T12:20:59;0.57;;;0.40;;
58308;SDS011;44117;57.142;24.826;2022-07-29T12:23:30;0.30;;;0.30;;
58308;SDS011;44117;57.142;24.826;2022-07-29T12:26:03;2.05;;;0.60;;
58308;SDS011;44117;57.142;24.826;2022-07-29T12:28:38;0.52;;;0.52;;
58308;SDS011;44117;57.142;24.826;2022-07-29T12:31:12;1.08;;;0.43;;
58308;SDS011;44117;57.142;24.826;2022-07-29T12:34:00;0.82;;;0.45;;
58308;SDS011;44117;57.142;24.826;2022-07-29T12:36:28;1.08;;;0.65;;
58308;SDS011;44117;57.142;24.826;2022-07-29T12:38:55;2.67;;;0.88;;
58308;SDS011;44117;57.142;24.826;2022-07-29T12:41:23;1.90;;;0.60;;
58308;SDS011;44117;57.142;24.826;2022-07-29T12:43:54;0.73;;;0.40;;
58308;SDS011;44117;57.142;24.826;2022-07-29T12:46:21;1.65;;;0.40;;
58308;SDS011;44117;57.142;24.826;2022-07-29T12:48:53;1.10;;;0.47;;
58308;SDS011;44117;57.142;24.826;2022-07-29T12:54:15;1.80;;;0.47;;
58308;SDS011;44117;57.142;24.826;2022-07-29T12:56:44;0.43;;;0.43;;
58308;SDS011;44117;57.142;24.826;2022-07-29T13:01:40;2.75;;;0.50;;
58308;SDS011;44117;57.142;24.826;2022-07-29T13:04:08;0.70;;;0.50;;
58308;SDS011;44117;57.142;24.826;2022-07-29T13:06:40;1.45;;;0.50;;
58308;SDS011;44117;57.142;24.826;2022-07-29T13:09:19;0.77;;;0.50;;
58308;SDS011;44117;57.142;24.826;2022-07-29T13:11:50;3.17;;;0.50;;
58308;SDS011;44117;57.142;24.826;2022-07-29T13:14:32;2.53;;;0.70;;
58308;SDS011;44117;57.142;24.826;2022-07-29T13:17:03;1.60;;;0.45;;
58308;SDS011;44117;57.142;24.826;2022-07-29T13:22:12;1.45;;;0.40;;
58308;SDS011;44117;57.142;24.826;2022-07-29T13:24:49;0.50;;;0.50;;
58308;SDS011;44117;57.142;24.826;2022-07-29T13:27:20;0.63;;;0.30;;
58308;SDS011;44117;57.142;24.826;2022-07-29T13:29:49;0.82;;;0.43;;
58308;SDS011;44117;57.142;24.826;2022-07-29T13:32:20;1.33;;;0.50;;
58308;SDS011;44117;57.142;24.826;2022-07-29T13:37:21;1.42;;;0.47;;
58308;SDS011;44117;57.142;24.826;2022-07-29T13:39:49;0.52;;;0.52;;
58308;SDS011;44117;57.142;24.826;2022-07-29T13:42:18;1.83;;;0.40;;
58308;SDS011;44117;57.142;24.826;2022-07-29T13:44:46;1.65;;;0.40;;
58308;SDS011;44117;57.142;24.826;2022-07-29T13:47:15;4.35;;;0.52;;
58308;SDS011;44117;57.142;24.826;2022-07-29T13:49:42;1.73;;;0.68;;
58308;SDS011;44117;57.142;24.826;2022-07-29T13:52:10;1.35;;;0.45;;
58308;SDS011;44117;57.142;24.826;2022-07-29T13:54:38;0.43;;;0.38;;
58308;SDS011;44117;57.142;24.826;2022-07-29T13:57:07;1.02;;;0.32;;
58308;SDS011;44117;57.142;24.826;2022-07-29T13:59:37;0.50;;;0.30;;
58308;SDS011;44117;57.142;24.826;2022-07-29T14:02:17;2.15;;;0.50;;
58308;SDS011;44117;57.142;24.826;2022-07-29T14:04:44;1.02;;;0.60;;
58308;SDS011;44117;57.142;24.826;2022-07-29T14:07:13;0.50;;;0.40;;
58308;SDS011;44117;57.142;24.826;2022-07-29T14:09:41;1.25;;;0.60;;
58308;SDS011;44117;57.142;24.826;2022-07-29T14:12:09;2.25;;;0.50;;
58308;SDS011;44117;57.142;24.826;2022-07-29T14:14:36;1.42;;;0.68;;
58308;SDS011;44117;57.142;24.826;2022-07-29T14:17:04;0.57;;;0.40;;
58308;SDS011;44117;57.142;24.826;2022-07-29T14:19:33;0.60;;;0.50;;
58308;SDS011;44117;57.142;24.826;2022-07-29T14:22:05;0.40;;;0.38;;
58308;SDS011;44117;57.142;24.826;2022-07-29T14:24:34;0.40;;;0.40;;
58308;SDS011;44117;57.142;24.826;2022-07-29T14:27:03;2.15;;;0.60;;
58308;SDS011;44117;57.142;24.826;2022-07-29T14:29:32;0.73;;;0.52;;
58308;SDS011;44117;57.142;24.826;2022-07-29T14:32:06;0.98;;;0.40;;
58308;SDS011;44117;57.142;24.826;2022-07-29T14:34:36;0.68;;;0.60;;
58308;SDS011;44117;57.142;24.826;2022-07-29T14:37:04;0.77;;;0.40;;
58308;SDS011;44117;57.142;24.826;2022-07-29T14:39:33;1.77;;;0.43;;
58308;SDS011;44117;57.142;24.826;2022-07-29T14:42:08;2.15;;;0.55;;
58308;SDS011;44117;57.142;24.826;2022-07-29T14:44:37;1.23;;;0.45;;
58308;SDS011;44117;57.142;24.826;2022-07-29T14:47:05;2.88;;;0.60;;
58308;SDS011;44117;57.142;24.826;2022-07-29T14:49:33;2.45;;;0.57;;
58308;SDS011;44117;57.142;24.826;2022-07-29T14:52:01;1.02;;;0.60;;
58308;SDS011;44117;57.142;24.826;2022-07-29T14:54:29;1.52;;;0.52;;
58308;SDS011;44117;57.142;24.826;2022-07-29T14:56:57;0.73;;;0.55;;
58308;SDS011;44117;57.142;24.826;2022-07-29T14:59:24;1.92;;;0.50;;
58308;SDS011;44117;57.142;24.826;2022-07-29T15:01:52;3.38;;;0.80;;
58308;SDS011;44117;57.142;24.826;2022-07-29T15:04:20;1.45;;;0.50;;
58308;SDS011;44117;57.142;24.826;2022-07-29T15:06:48;0.47;;;0.40;;
58308;SDS011;44117;57.142;24.826;2022-07-29T15:09:15;1.73;;;0.50;;
58308;SDS011;44117;57.142;24.826;2022-07-29T15:11:42;0.80;;;0.30;;
58308;SDS011;44117;57.142;24.826;2022-07-29T15:14:10;1.13;;;0.40;;
58308;SDS011;44117;57.142;24.826;2022-07-29T15:16:38;1.58;;;0.50;;
58308;SDS011;44117;57.142;24.826;2022-07-29T15:19:13;1.63;;;0.40;;
58308;SDS011;44117;57.142;24.826;2022-07-29T15:21:40;1.63;;;0.60;;
58308;SDS011;44117;57.142;24.826;2022-07-29T15:24:14;1.65;;;0.50;;
58308;SDS011;44117;57.142;24.826;2022-07-29T15:26:48;1.48;;;0.40;;
58308;SDS011;44117;57.142;24.826;2022-07-29T15:29:15;1.10;;;0.50;;
58308;SDS011;44117;57.142;24.826;2022-07-29T15:31:43;2.20;;;0.55;;
58308;SDS011;44117;57.142;24.826;2022-07-29T15:34:10;0.70;;;0.40;;
58308;SDS011;44117;57.142;24.826;2022-07-29T15:36:38;0.50;;;0.32;;
58308;SDS011;44117;57.142;24.826;2022-07-29T15:39:20;2.78;;;0.40;;
58308;SDS011;44117;57.142;24.826;2022-07-29T15:41:48;1.00;;;0.43;;
58308;SDS011;44117;57.142;24.826;2022-07-29T15:44:17;1.15;;;0.50;;
58308;SDS011;44117;57.142;24.826;2022-07-29T15:46:46;3.38;;;0.50;;
58308;SDS011;44117;57.142;24.826;2022-07-29T15:49:30;0.30;;;0.30;;
58308;SDS011;44117;57.142;24.826;2022-07-29T15:52:15;2.75;;;0.38;;
58308;SDS011;44117;57.142;24.826;2022-07-29T15:54:51;0.73;;;0.40;;
58308;SDS011;44117;57.142;24.826;2022-07-29T15:57:22;1.35;;;0.55;;